Time;durP1;ratioP1;P1;durP2;ratioP2;P2;SDS_P1;SDS_P2;PMS_P1;PMS_P2;Temp;Humidity;BMP_temperature;BMP_pressure;BME280_temperature;BME280_humidity;BME280_pressure;Samples;Min_cycle;Max_cycle;Signal;HPM_P1;HPM_P2
2022/07/21 00:00:56;;;;;;;10.95;5.03;;;665.70;1715.20;;;;;;5116206;28;20025;-76
2022/07/21 00:03:22;;;;;;;11.35;4.40;;;665.80;1715.20;;;;;;5116645;28;20374;-77
2022/07/21 00:05:47;;;;;;;10.63;4.65;;;665.90;1715.20;;;;;;5116594;28;20016;-77
2022/07/21 00:08:13;;;;;;;10.10;5.10;;;665.90;1715.20;;;;;;5100124;28;20062;-76
2022/07/21 00:10:40;;;;;;;13.80;4.70;;;665.90;1689.60;;;;;;5096408;28;20021;-77
2022/07/21 00:13:06;;;;;;;12.80;4.85;;;666.10;1689.60;;;;;;5096136;28;20028;-76
2022/07/21 00:15:32;;;;;;;8.35;4.40;;;666.00;1689.60;;;;;;5095078;28;20035;-78
2022/07/21 00:17:59;;;;;;;10.23;4.50;;;666.10;1689.60;;;;;;5096359;28;20020;-78
2022/07/21 00:20:27;;;;;;;16.52;4.75;;;666.00;1689.60;;;;;;5095199;28;20048;-78
2022/07/21 00:22:53;;;;;;;10.00;4.65;;;665.80;1715.20;;;;;;5098069;28;20024;-79
2022/07/21 00:25:20;;;;;;;10.20;4.68;;;640.80;1715.20;;;;;;5107529;28;20024;-78
2022/07/21 00:27:46;;;;;;;7.53;4.25;;;640.60;1740.80;;;;;;5104801;28;20058;-76
2022/07/21 00:30:12;;;;;;;14.77;4.45;;;640.50;1740.80;;;;;;5105848;28;20516;-76
2022/07/21 00:32:38;;;;;;;13.38;4.70;;;640.50;1740.80;;;;;;5106289;28;20039;-76
2022/07/21 00:35:05;;;;;;;11.40;4.45;;;640.60;1689.60;;;;;;5106051;28;20466;-76
2022/07/21 00:37:31;;;;;;;7.45;4.13;;;640.60;1689.60;;;;;;5104753;28;20368;-76
2022/07/21 00:39:57;;;;;;;15.68;4.82;;;640.60;1689.60;;;;;;5107291;28;20024;-76
2022/07/21 00:42:24;;;;;;;8.25;4.43;;;640.50;1715.20;;;;;;5105767;28;20401;-76
2022/07/21 00:44:51;;;;;;;9.05;4.75;;;640.50;1715.20;;;;;;5105772;28;20538;-77
2022/07/21 00:47:22;;;;;;;11.70;4.40;;;640.60;1689.60;;;;;;5107324;28;20149;-77
2022/07/21 00:49:48;;;;;;;9.95;4.25;;;640.50;1715.20;;;;;;5106244;28;20019;-77
2022/07/21 00:52:14;;;;;;;8.35;4.43;;;640.00;1715.20;;;;;;5105407;28;20377;-76
2022/07/21 00:54:40;;;;;;;10.82;4.68;;;640.40;1715.20;;;;;;5106978;28;20019;-77
2022/07/21 00:57:06;;;;;;;9.52;4.75;;;640.50;1689.60;;;;;;5105515;28;20056;-78
2022/07/21 00:59:32;;;;;;;7.93;4.30;;;640.60;1664.00;;;;;;5084412;28;20035;-77
2022/07/21 01:01:57;;;;;;;6.90;4.13;;;640.50;1689.60;;;;;;5077488;28;20444;-77
2022/07/21 01:04:23;;;;;;;10.60;4.75;;;640.60;1689.60;;;;;;5095731;28;20051;-77
2022/07/21 01:06:50;;;;;;;11.20;4.35;;;640.60;1664.00;;;;;;5076855;28;20051;-78
2022/07/21 01:09:16;;;;;;;10.73;4.95;;;640.40;1689.60;;;;;;5095292;28;20016;-78
2022/07/21 01:11:43;;;;;;;11.27;4.18;;;640.20;1715.20;;;;;;5077550;28;20031;-79
2022/07/21 01:14:08;;;;;;;10.77;4.22;;;640.40;1689.60;;;;;;5077099;28;20145;-78
2022/07/21 01:16:34;;;;;;;8.63;4.88;;;640.50;1689.60;;;;;;5077444;28;20081;-79
2022/07/21 01:19:00;;;;;;;9.90;4.05;;;640.60;1689.60;;;;;;5075058;28;20473;-79
2022/07/21 01:21:35;;;;;;;9.68;4.25;;;640.60;1664.00;;;;;;5076858;28;20139;-79
2022/07/21 01:24:02;;;;;;;7.57;4.15;;;640.70;1664.00;;;;;;5074649;28;20021;-79
2022/07/21 01:26:29;;;;;;;11.95;4.80;;;640.90;1638.40;;;;;;5077239;28;20029;-79
2022/07/21 01:28:56;;;;;;;7.85;4.35;;;640.80;1638.40;;;;;;5077191;28;20027;-78
2022/07/21 01:31:23;;;;;;;9.50;4.15;;;665.60;1664.00;;;;;;5074613;28;20146;-78
2022/07/21 01:33:49;;;;;;;12.48;4.80;;;665.60;1664.00;;;;;;5077130;28;20020;-78
2022/07/21 01:36:15;;;;;;;11.50;4.55;;;665.60;1664.00;;;;;;5077174;28;20024;-78
2022/07/21 01:41:32;;;;;;;10.55;4.75;;;665.60;1689.60;;;;;;5092938;28;20043;-79
2022/07/21 01:44:06;;;;;;;11.43;4.63;;;665.60;1689.60;;;;;;5076938;28;20480;-79
2022/07/21 01:46:35;;;;;;;14.18;4.40;;;665.60;1689.60;;;;;;5076817;28;20371;-78
2022/07/21 01:49:02;;;;;;;8.77;4.80;;;665.60;1664.00;;;;;;5095055;28;20016;-79
2022/07/21 01:51:27;;;;;;;15.73;4.32;;;665.70;1664.00;;;;;;5094952;28;20028;-78
2022/07/21 01:53:54;;;;;;;10.57;4.35;;;665.70;1664.00;;;;;;5077068;28;20027;-78
2022/07/21 01:56:21;;;;;;;8.65;4.25;;;665.70;1638.40;;;;;;5094201;28;20150;-79
2022/07/21 01:58:48;;;;;;;11.55;3.90;;;665.70;1638.40;;;;;;5094788;28;20016;-78
2022/07/21 02:01:18;;;;;;;10.00;3.88;;;665.80;1612.80;;;;;;5094651;28;20109;-79
2022/07/21 02:03:45;;;;;;;11.63;4.32;;;665.90;1612.80;;;;;;5074220;28;20027;-79
2022/07/21 02:06:11;;;;;;;6.95;3.58;;;665.80;1612.80;;;;;;5094548;28;20543;-78
2022/07/21 02:08:38;;;;;;;12.90;3.97;;;666.00;1587.20;;;;;;5076491;28;20118;-77
2022/07/21 02:11:05;;;;;;;14.50;3.95;;;666.00;1587.20;;;;;;5076241;28;20457;-76
2022/07/21 02:13:32;;;;;;;9.23;4.13;;;666.00;1587.20;;;;;;5076353;28;20020;-78
2022/07/21 02:15:58;;;;;;;10.82;3.97;;;666.00;1587.20;;;;;;5094496;28;20012;-79
2022/07/21 02:18:23;;;;;;;16.13;4.85;;;666.00;1587.20;;;;;;5073448;28;20031;-78
2022/07/21 02:20:50;;;;;;;7.55;3.78;;;666.00;1587.20;;;;;;5094348;28;20413;-78
2022/07/21 02:23:17;;;;;;;9.73;4.95;;;665.90;1587.20;;;;;;5076152;28;20519;-78
2022/07/21 02:25:43;;;;;;;7.93;3.90;;;665.90;1587.20;;;;;;5076021;28;20078;-79
2022/07/21 02:28:09;;;;;;;7.05;3.40;;;666.00;1587.20;;;;;;5075964;28;20416;-77
2022/07/21 02:30:35;;;;;;;6.47;3.58;;;665.90;1587.20;;;;;;5075992;28;20537;-78
2022/07/21 02:33:01;;;;;;;10.25;4.20;;;665.80;1587.20;;;;;;5094167;28;20496;-78
2022/07/21 02:35:27;;;;;;;10.30;3.78;;;665.80;1587.20;;;;;;5075963;28;20020;-77
2022/07/21 02:37:53;;;;;;;6.75;3.38;;;665.90;1587.20;;;;;;5094110;28;20032;-77
2022/07/21 02:40:19;;;;;;;5.90;3.45;;;665.80;1561.60;;;;;;5093706;28;20020;-78
2022/07/21 02:42:45;;;;;;;16.83;4.50;;;665.80;1561.60;;;;;;5075674;28;20473;-78
2022/07/21 02:45:11;;;;;;;8.60;4.03;;;665.80;1561.60;;;;;;5094160;28;20020;-78
2022/07/21 02:47:56;;;;;;;11.18;4.03;;;665.80;1561.60;;;;;;5075701;28;20024;-78
2022/07/21 02:50:24;;;;;;;8.50;4.38;;;665.80;1561.60;;;;;;5075111;28;20031;-78
2022/07/21 02:52:53;;;;;;;8.48;3.50;;;665.80;1561.60;;;;;;5075573;28;20027;-78
2022/07/21 02:55:18;;;;;;;7.88;3.55;;;665.70;1561.60;;;;;;5093468;28;20035;-76
2022/07/21 02:57:44;;;;;;;9.38;4.50;;;665.70;1561.60;;;;;;5093500;28;20047;-76
2022/07/21 03:00:10;;;;;;;10.63;4.18;;;665.70;1561.60;;;;;;5093515;28;20465;-78
2022/07/21 03:02:38;;;;;;;6.78;3.50;;;665.70;1561.60;;;;;;5075328;28;20073;-77
2022/07/21 03:05:04;;;;;;;7.45;3.88;;;665.60;1561.60;;;;;;5093606;28;20020;-77
2022/07/21 03:07:30;;;;;;;5.47;3.63;;;665.70;1561.60;;;;;;5093526;28;20096;-77
2022/07/21 03:09:56;;;;;;;9.52;3.78;;;665.60;1587.20;;;;;;5075293;28;20533;-78
2022/07/21 03:12:21;;;;;;;9.00;3.58;;;640.90;1561.60;;;;;;5075179;28;20039;-78
2022/07/21 03:14:47;;;;;;;22.42;4.90;;;665.60;1587.20;;;;;;5072566;28;20027;-78
2022/07/21 03:17:13;;;;;;;7.57;3.65;;;640.90;1561.60;;;;;;5093315;28;20428;-79
2022/07/21 03:19:39;;;;;;;8.02;4.43;;;640.70;1587.20;;;;;;5093274;28;20023;-78
2022/07/21 03:22:05;;;;;;;6.68;4.05;;;640.70;1612.80;;;;;;5075077;28;20529;-79
2022/07/21 03:24:30;;;;;;;12.35;4.80;;;640.40;1664.00;;;;;;5074884;28;20024;-77
2022/07/21 03:26:57;;;;;;;12.32;4.57;;;640.30;1715.20;;;;;;5074650;28;20091;-78
2022/07/21 03:29:23;;;;;;;12.43;3.90;;;640.20;1740.80;;;;;;5074988;28;20032;-78
2022/07/21 03:31:49;;;;;;;10.23;4.38;;;640.00;1766.40;;;;;;5092705;28;20016;-77
2022/07/21 03:34:15;;;;;;;9.85;4.43;;;640.00;1817.60;;;;;;5093077;28;20066;-78
2022/07/21 03:36:41;;;;;;;6.97;4.10;;;640.00;1817.60;;;;;;5093061;28;20047;-78
2022/07/21 03:39:07;;;;;;;9.70;4.80;;;615.30;1843.20;;;;;;5092869;28;20017;-77
2022/07/21 03:41:32;;;;;;;10.40;3.80;;;615.20;1868.80;;;;;;5074783;28;20024;-77
2022/07/21 03:43:58;;;;;;;10.23;4.03;;;615.10;1868.80;;;;;;5093032;28;20039;-78
2022/07/21 03:46:24;;;;;;;12.32;3.80;;;615.20;1868.80;;;;;;5074593;28;20406;-79
2022/07/21 03:48:50;;;;;;;6.28;4.15;;;615.10;1868.80;;;;;;5072121;28;20028;-78
2022/07/21 03:51:16;;;;;;;7.70;4.40;;;615.10;1868.80;;;;;;5092822;28;20020;-76
2022/07/21 03:53:41;;;;;;;6.45;4.15;;;615.00;1868.80;;;;;;5092868;28;20525;-76
2022/07/21 03:56:07;;;;;;;14.00;4.70;;;615.00;1868.80;;;;;;5092123;28;20044;-76
2022/07/21 03:58:33;;;;;;;16.95;5.07;;;615.00;1868.80;;;;;;5074659;28;20052;-76
2022/07/21 04:00:59;;;;;;;12.52;4.55;;;615.00;1868.80;;;;;;5074490;28;20024;-74
2022/07/21 04:03:25;;;;;;;7.55;4.15;;;615.00;1894.40;;;;;;5092599;28;20032;-74
2022/07/21 04:05:50;;;;;;;8.38;4.03;;;615.00;1894.40;;;;;;5092686;28;20031;-74
2022/07/21 04:08:16;;;;;;;12.25;4.15;;;615.00;1894.40;;;;;;5074006;28;20032;-73
2022/07/21 04:10:43;;;;;;;12.02;4.50;;;615.00;1894.40;;;;;;5092665;28;20020;-76
2022/07/21 04:13:11;;;;;;;6.07;4.45;;;615.00;1920.00;;;;;;5092353;28;20016;-76
2022/07/21 04:15:38;;;;;;;12.45;5.38;;;615.00;1920.00;;;;;;5092519;28;20415;-76
2022/07/21 04:18:05;;;;;;;7.65;4.55;;;615.00;1920.00;;;;;;5092609;28;20016;-74
2022/07/21 04:20:32;;;;;;;9.38;4.47;;;615.00;1920.00;;;;;;5089745;28;20009;-75
2022/07/21 04:22:58;;;;;;;13.48;4.28;;;615.00;1945.60;;;;;;5092553;28;20020;-76
2022/07/21 04:25:24;;;;;;;12.50;4.82;;;615.00;1945.60;;;;;;5092333;28;20385;-78
2022/07/21 04:27:50;;;;;;;12.85;4.38;;;615.00;1945.60;;;;;;5074178;28;20024;-76
2022/07/21 04:30:22;;;;;;;8.68;4.25;;;615.10;1945.60;;;;;;5092418;28;20020;-76
2022/07/21 04:32:48;;;;;;;7.85;4.10;;;615.00;1971.20;;;;;;5092393;28;20051;-75
2022/07/21 04:35:14;;;;;;;22.48;4.45;;;615.10;1971.20;;;;;;5092358;28;20047;-76
2022/07/21 04:37:40;;;;;;;11.68;4.10;;;615.20;1971.20;;;;;;5092479;28;20016;-76
2022/07/21 04:40:08;;;;;;;8.27;4.40;;;615.30;1971.20;;;;;;5092282;28;20413;-78
2022/07/21 04:42:34;;;;;;;8.68;4.10;;;615.30;1945.60;;;;;;5072155;28;20451;-76
2022/07/21 04:45:00;;;;;;;5.80;3.67;;;640.00;1945.60;;;;;;5096218;28;20019;-76
2022/07/21 04:47:26;;;;;;;14.52;3.97;;;640.00;1945.60;;;;;;5096157;28;20039;-77
2022/07/21 04:49:52;;;;;;;10.63;3.72;;;640.20;1920.00;;;;;;5096068;28;20435;-76
2022/07/21 04:52:18;;;;;;;9.20;4.13;;;640.20;1945.60;;;;;;5096105;28;20508;-76
2022/07/21 04:54:43;;;;;;;10.02;4.75;;;640.40;1945.60;;;;;;5077660;28;20028;-76
2022/07/21 04:57:09;;;;;;;10.82;4.55;;;640.30;1971.20;;;;;;5095760;28;20072;-74
2022/07/21 04:59:35;;;;;;;17.25;5.15;;;640.40;1945.60;;;;;;5095996;28;20070;-77
2022/07/21 05:02:02;;;;;;;14.63;4.85;;;640.60;1920.00;;;;;;5095766;28;20031;-75
2022/07/21 05:04:27;;;;;;;13.68;4.43;;;640.60;1920.00;;;;;;5095697;28;20021;-77
2022/07/21 05:06:54;;;;;;;11.40;4.20;;;640.60;1894.40;;;;;;5092992;28;20024;-76
2022/07/21 05:09:20;;;;;;;9.10;3.92;;;640.70;1817.60;;;;;;5095692;28;20137;-77
2022/07/21 05:11:46;;;;;;;19.60;5.10;;;640.80;1817.60;;;;;;5095484;28;20027;-76
2022/07/21 05:14:12;;;;;;;8.45;3.20;;;640.90;1792.00;;;;;;5095568;28;20099;-76
2022/07/21 05:16:38;;;;;;;11.57;4.13;;;640.90;1766.40;;;;;;5095459;28;20047;-75
2022/07/21 05:19:04;;;;;;;8.02;3.85;;;665.60;1766.40;;;;;;5095623;28;20016;-77
2022/07/21 05:21:29;;;;;;;18.10;4.32;;;640.90;1766.40;;;;;;5095275;28;20040;-77
2022/07/21 05:23:56;;;;;;;10.57;3.90;;;665.60;1792.00;;;;;;5095354;28;20020;-76
2022/07/21 05:26:22;;;;;;;12.77;5.18;;;665.70;1792.00;;;;;;5095173;28;20024;-75
2022/07/21 05:28:47;;;;;;;14.43;4.30;;;665.70;1792.00;;;;;;5095125;28;20428;-75
2022/07/21 05:31:13;;;;;;;13.77;4.30;;;665.90;1792.00;;;;;;5095151;28;20099;-76
2022/07/21 05:33:39;;;;;;;9.05;4.68;;;666.00;1792.00;;;;;;5095308;28;20042;-75
2022/07/21 05:36:06;;;;;;;9.70;4.35;;;666.10;1766.40;;;;;;5095113;28;20070;-75
2022/07/21 05:38:33;;;;;;;15.02;11.57;;;666.20;1766.40;;;;;;5095095;28;20099;-76
2022/07/21 05:41:02;;;;;;;10.52;4.70;;;666.40;1740.80;;;;;;5094966;28;20098;-75
2022/07/21 05:43:30;;;;;;;9.82;4.38;;;666.50;1715.20;;;;;;5094859;28;20020;-75
2022/07/21 05:45:56;;;;;;;13.80;4.75;;;691.20;1715.20;;;;;;5092218;28;20086;-75
2022/07/21 05:48:22;;;;;;;10.20;3.88;;;691.30;1689.60;;;;;;5094908;28;20026;-74
2022/07/21 05:50:48;;;;;;;9.55;4.65;;;691.30;1664.00;;;;;;5094845;28;20019;-75
2022/07/21 05:53:13;;;;;;;11.25;5.03;;;691.40;1638.40;;;;;;5094429;28;20024;-75
2022/07/21 05:55:39;;;;;;;6.00;4.45;;;691.50;1638.40;;;;;;5094471;28;20051;-75
2022/07/21 05:58:05;;;;;;;10.77;4.57;;;691.50;1638.40;;;;;;5094639;28;20556;-76
2022/07/21 06:00:31;;;;;;;8.43;4.57;;;691.60;1612.80;;;;;;5094658;28;20016;-75
2022/07/21 06:02:56;;;;;;;9.90;4.95;;;691.70;1612.80;;;;;;5080213;28;20028;-75
2022/07/21 06:05:22;;;;;;;10.43;4.80;;;691.80;1612.80;;;;;;5092630;28;20492;-76
2022/07/21 06:07:48;;;;;;;10.57;4.90;;;691.80;1587.20;;;;;;5094625;28;20153;-75
2022/07/21 06:10:14;;;;;;;9.20;5.13;;;691.80;1587.20;;;;;;5094574;28;20038;-76
2022/07/21 06:12:40;;;;;;;11.23;5.50;;;691.90;1587.20;;;;;;5094423;28;20505;-75
2022/07/21 06:15:07;;;;;;;19.98;7.45;;;692.00;1587.20;;;;;;5094490;28;20499;-77
2022/07/21 06:17:43;;;;;;;20.13;6.80;;;692.10;1587.20;;;;;;5094318;28;20078;-77
2022/07/21 06:20:10;;;;;;;22.08;7.28;;;692.10;1561.60;;;;;;5094354;28;20469;-76
2022/07/21 06:22:36;;;;;;;16.05;6.50;;;716.80;1561.60;;;;;;5094151;28;20028;-75
2022/07/21 06:25:02;;;;;;;15.35;7.00;;;716.90;1536.00;;;;;;5094307;28;20087;-75
2022/07/21 06:27:28;;;;;;;16.70;6.10;;;717.10;1536.00;;;;;;5093950;28;20036;-78
2022/07/21 06:29:56;;;;;;;14.85;5.70;;;717.10;1510.40;;;;;;5094217;28;20074;-74
2022/07/21 06:32:22;;;;;;;12.80;5.68;;;717.20;1510.40;;;;;;5094076;28;20024;-76
2022/07/21 06:34:48;;;;;;;17.38;5.72;;;717.40;1510.40;;;;;;5094011;28;20052;-75
2022/07/21 06:37:14;;;;;;;10.57;5.78;;;717.50;1484.80;;;;;;5093887;28;20078;-78
2022/07/21 06:39:41;;;;;;;14.02;5.45;;;717.50;1459.20;;;;;;5093776;28;20355;-76
2022/07/21 06:42:07;;;;;;;18.77;5.22;;;717.70;1433.60;;;;;;5093689;28;20477;-80
2022/07/21 06:44:33;;;;;;;14.02;5.20;;;742.40;1459.20;;;;;;5093705;28;20065;-75
2022/07/21 06:47:04;;;;;;;13.02;4.85;;;742.50;1433.60;;;;;;5094066;28;20032;-75
2022/07/21 06:49:33;;;;;;;17.65;4.72;;;742.50;1356.80;;;;;;5094202;28;20020;-75
2022/07/21 06:51:59;;;;;;;8.93;4.35;;;742.60;1331.20;;;;;;5094019;28;20058;-77
2022/07/21 06:54:25;;;;;;;15.32;4.38;;;742.70;1331.20;;;;;;5093970;28;20121;-75
2022/07/21 06:56:51;;;;;;;12.48;3.70;;;742.80;1331.20;;;;;;5093820;28;20510;-73
2022/07/21 06:59:16;;;;;;;6.85;3.63;;;742.90;1331.20;;;;;;5093170;28;20023;-75
2022/07/21 07:01:42;;;;;;;8.57;3.42;;;743.00;1305.60;;;;;;5093141;28;20031;-75
2022/07/21 07:04:08;;;;;;;6.03;3.55;;;743.10;1280.00;;;;;;5093552;28;20016;-76
2022/07/21 07:06:34;;;;;;;7.80;3.72;;;743.30;1280.00;;;;;;5092681;28;20048;-77
2022/07/21 07:09:00;;;;;;;14.93;3.95;;;768.00;1280.00;;;;;;5093050;28;20028;-77
2022/07/21 07:11:25;;;;;;;14.10;3.97;;;768.10;1228.80;;;;;;5093308;28;20016;-73
2022/07/21 07:13:51;;;;;;;11.15;3.97;;;768.20;1228.80;;;;;;5093165;28;20470;-75
2022/07/21 07:16:17;;;;;;;14.00;3.72;;;768.40;1228.80;;;;;;5093432;28;20065;-73
2022/07/21 07:18:42;;;;;;;9.43;3.28;;;768.50;1228.80;;;;;;5093108;28;20024;-74
2022/07/21 07:21:08;;;;;;;13.30;4.18;;;768.60;1228.80;;;;;;5093153;28;20061;-75
2022/07/21 07:23:34;;;;;;;15.98;4.05;;;768.70;1228.80;;;;;;5093207;28;20027;-76
2022/07/21 07:25:59;;;;;;;15.07;3.80;;;768.90;1228.80;;;;;;5093254;28;20024;-73
2022/07/21 07:28:25;;;;;;;8.20;3.67;;;793.70;1228.80;;;;;;5093174;28;20536;-74
2022/07/21 07:30:51;;;;;;;13.02;4.03;;;793.80;1228.80;;;;;;5093158;28;20081;-74
2022/07/21 07:33:17;;;;;;;11.52;4.28;;;793.80;1203.20;;;;;;5093137;28;20020;-74
2022/07/21 07:35:43;;;;;;;12.98;4.68;;;794.00;1203.20;;;;;;5075112;28;20477;-74
2022/07/21 07:38:15;;;;;;;10.52;4.32;;;794.10;1228.80;;;;;;5093316;28;20067;-75
2022/07/21 07:40:41;;;;;;;12.05;4.43;;;794.20;1228.80;;;;;;5092879;28;20024;-74
2022/07/21 07:43:07;;;;;;;5.13;3.63;;;794.30;1228.80;;;;;;5092552;28;20036;-73
2022/07/21 07:45:35;;;;;;;9.82;4.93;;;794.40;1203.20;;;;;;5092064;28;20119;-77
2022/07/21 07:48:01;;;;;;;11.90;6.15;;;794.50;1177.60;;;;;;5090203;28;20052;-78
2022/07/21 07:50:28;;;;;;;7.63;4.68;;;819.30;1177.60;;;;;;5093125;28;20092;-75
2022/07/21 07:52:54;;;;;;;12.52;4.57;;;819.20;1177.60;;;;;;5093305;28;20127;-76
2022/07/21 07:55:20;;;;;;;7.22;4.25;;;819.20;1177.60;;;;;;5074763;28;20041;-75
2022/07/21 07:57:45;;;;;;;12.20;4.68;;;819.30;1177.60;;;;;;5107168;28;20048;-75
2022/07/21 08:00:15;;;;;;;13.45;4.10;;;819.40;1177.60;;;;;;5092923;28;20028;-75
2022/07/21 08:02:41;;;;;;;14.18;4.72;;;819.50;1177.60;;;;;;5106517;28;20038;-75
2022/07/21 08:05:08;;;;;;;6.35;4.00;;;819.70;1177.60;;;;;;5093708;28;20020;-74
2022/07/21 08:07:37;;;;;;;9.65;4.80;;;819.80;1203.20;;;;;;5092976;28;20057;-75
2022/07/21 08:10:05;;;;;;;12.57;4.25;;;819.90;1152.00;;;;;;5092889;28;20044;-75
2022/07/21 08:12:31;;;;;;;9.52;4.38;;;819.90;1100.80;;;;;;5092984;28;20027;-75
2022/07/21 08:14:56;;;;;;;7.40;4.00;;;820.10;1100.80;;;;;;5076618;28;20016;-76
2022/07/21 08:17:22;;;;;;;11.43;4.45;;;844.80;1126.40;;;;;;5095248;28;20031;-76
2022/07/21 08:19:48;;;;;;;10.57;4.43;;;820.10;1075.20;;;;;;5082736;28;20039;-75
2022/07/21 08:22:14;;;;;;;12.13;4.50;;;844.80;1126.40;;;;;;5095613;28;20116;-75
2022/07/21 08:24:39;;;;;;;9.48;3.90;;;844.90;1100.80;;;;;;5096711;28;20099;-76
2022/07/21 08:27:05;;;;;;;9.55;4.13;;;845.00;1075.20;;;;;;5096677;28;20024;-75
2022/07/21 08:29:31;;;;;;;6.63;4.43;;;845.20;1100.80;;;;;;5103020;28;20077;-76
2022/07/21 08:31:56;;;;;;;6.72;4.25;;;845.20;1100.80;;;;;;5105768;28;20473;-74
2022/07/21 08:34:22;;;;;;;10.52;4.78;;;845.30;1126.40;;;;;;5112115;28;20045;-75
2022/07/21 08:36:48;;;;;;;8.43;4.18;;;845.20;1075.20;;;;;;5096651;28;20473;-78
2022/07/21 08:39:14;;;;;;;9.63;4.20;;;845.20;1075.20;;;;;;5096753;28;20023;-78
2022/07/21 08:41:40;;;;;;;7.03;4.72;;;845.20;1100.80;;;;;;5080982;28;20083;-78
2022/07/21 08:44:07;;;;;;;14.43;5.13;;;845.30;1075.20;;;;;;5078235;28;20423;-77
2022/07/21 08:46:34;;;;;;;8.88;5.03;;;845.30;1075.20;;;;;;5096483;28;20016;-77
2022/07/21 08:49:02;;;;;;;11.82;5.78;;;845.40;1075.20;;;;;;5071780;28;20058;-78
2022/07/21 08:51:33;;;;;;;9.95;5.63;;;845.50;1049.60;;;;;;5070990;28;20024;-75
2022/07/21 08:53:59;;;;;;;9.60;5.85;;;845.70;1049.60;;;;;;5099241;28;20021;-76
2022/07/21 08:56:24;;;;;;;12.52;5.65;;;845.60;1024.00;;;;;;5092914;27;20053;-76
2022/07/21 08:58:50;;;;;;;13.88;6.15;;;845.70;1049.60;;;;;;5127502;27;20027;-77
2022/07/21 09:01:16;;;;;;;18.88;5.68;;;845.60;1024.00;;;;;;5116499;28;20489;-77
2022/07/21 09:03:42;;;;;;;13.70;5.28;;;870.40;1024.00;;;;;;5116564;28;20020;-78
2022/07/21 09:06:12;;;;;;;11.00;6.60;;;870.40;1024.00;;;;;;5096071;28;20042;-77
2022/07/21 09:08:41;;;;;;;14.98;6.30;;;870.50;1024.00;;;;;;5116083;28;20050;-79
2022/07/21 09:11:17;;;;;;;12.48;6.25;;;870.60;1024.00;;;;;;5116122;28;20027;-77
2022/07/21 09:13:45;;;;;;;14.38;5.70;;;870.50;972.80;;;;;;5116330;28;20799;-77
2022/07/21 09:16:11;;;;;;;9.88;5.78;;;870.50;972.80;;;;;;5116284;28;20397;-76
2022/07/21 09:18:50;;;;;;;9.43;5.30;;;870.50;998.40;;;;;;5116382;28;20039;-77
2022/07/21 09:21:18;;;;;;;14.07;7.32;;;870.70;998.40;;;;;;5114297;27;20400;-75
2022/07/21 09:23:44;;;;;;;19.65;6.28;;;870.70;972.80;;;;;;5096038;28;20035;-74
2022/07/21 09:26:10;;;;;;;10.07;5.68;;;870.80;998.40;;;;;;5115686;28;20477;-74
2022/07/21 09:28:36;;;;;;;10.52;6.25;;;870.80;972.80;;;;;;5078336;28;20040;-78
2022/07/21 09:31:08;;;;;;;10.45;6.35;;;871.00;972.80;;;;;;5098649;27;20459;-78
2022/07/21 09:33:41;;;;;;;9.32;5.53;;;871.10;947.20;;;;;;5115275;28;20077;-76
2022/07/21 09:36:18;;;;;;;10.48;5.53;;;871.10;947.20;;;;;;5115854;28;20032;-78
2022/07/21 09:38:43;;;;;;;10.38;5.82;;;871.20;947.20;;;;;;5115883;28;20019;-74
2022/07/21 09:41:15;;;;;;;14.70;6.25;;;871.30;947.20;;;;;;5115762;28;20057;-75
2022/07/21 09:43:52;;;;;;;10.02;5.85;;;896.10;947.20;;;;;;5115611;28;20019;-74
2022/07/21 09:46:25;;;;;;;11.88;5.45;;;896.30;947.20;;;;;;5115700;28;20024;-75
2022/07/21 09:48:57;;;;;;;14.82;5.70;;;896.40;947.20;;;;;;5115413;28;20023;-76
2022/07/21 09:51:43;;;;;;;9.30;5.70;;;896.60;921.60;;;;;;5114749;28;20036;-74
2022/07/21 09:54:11;;;;;;;14.93;6.32;;;896.90;896.00;;;;;;5113851;28;20061;-78
2022/07/21 09:56:39;;;;;;;13.45;6.10;;;921.60;921.60;;;;;;5115261;27;20142;-78
2022/07/21 09:59:06;;;;;;;16.23;5.53;;;921.80;921.60;;;;;;5115568;28;20125;-80
2022/07/21 10:01:33;;;;;;;11.38;5.75;;;922.00;896.00;;;;;;5114252;28;20055;-76
2022/07/21 10:03:59;;;;;;;10.82;6.10;;;922.00;896.00;;;;;;5096697;28;20076;-76
2022/07/21 10:06:28;;;;;;;11.20;5.43;;;922.00;896.00;;;;;;5115139;28;20023;-81
2022/07/21 10:08:56;;;;;;;13.35;5.22;;;922.20;870.40;;;;;;5115253;28;20537;-78
2022/07/21 10:11:23;;;;;;;14.00;5.93;;;922.30;870.40;;;;;;5114925;28;20016;-77
2022/07/21 10:13:49;;;;;;;11.48;5.72;;;922.50;870.40;;;;;;5115206;28;20030;-77
2022/07/21 10:16:15;;;;;;;7.97;5.78;;;922.50;896.00;;;;;;5114501;28;20016;-78
2022/07/21 10:19:12;;;;;;;14.20;5.18;;;922.50;896.00;;;;;;5113412;28;20027;-78
2022/07/21 10:21:58;;;;;;;9.38;4.40;;;947.30;896.00;;;;;;5114595;28;20032;-76
2022/07/21 10:24:28;;;;;;;9.52;4.85;;;947.40;870.40;;;;;;5084434;28;20118;-77
2022/07/21 10:27:07;;;;;;;9.02;4.93;;;947.50;896.00;;;;;;5081970;27;20036;-79
2022/07/21 10:29:48;;;;;;;7.82;4.65;;;947.60;896.00;;;;;;5078188;28;20030;-78
2022/07/21 10:32:20;;;;;;;13.73;4.43;;;947.90;870.40;;;;;;5104518;28;20027;-78
2022/07/21 10:34:48;;;;;;;11.52;5.03;;;947.90;870.40;;;;;;5114264;28;20088;-78
2022/07/21 10:37:39;;;;;;;8.23;4.45;;;947.90;896.00;;;;;;5114789;28;20023;-79
2022/07/21 10:40:20;;;;;;;6.45;4.60;;;973.20;896.00;;;;;;5095012;28;20031;-79
2022/07/21 10:43:01;;;;;;;6.53;4.80;;;998.70;870.40;;;;;;5082823;28;20147;-78
2022/07/21 10:45:39;;;;;;;8.18;4.05;;;998.70;870.40;;;;;;5075175;28;20036;-80
2022/07/21 10:48:08;;;;;;;7.93;4.63;;;998.60;870.40;;;;;;5110714;27;20030;-84
2022/07/21 10:50:39;;;;;;;9.60;4.32;;;998.90;844.80;;;;;;5096655;28;20118;-82
2022/07/21 10:53:16;;;;;;;11.07;4.38;;;999.10;870.40;;;;;;5102774;27;20440;-83
2022/07/21 10:55:47;;;;;;;9.73;5.00;;;999.20;844.80;;;;;;5102167;28;21582;-81
2022/07/21 10:58:23;;;;;;;8.13;4.68;;;1024.40;819.20;;;;;;5112384;28;20042;-80
2022/07/21 11:00:53;;;;;;;6.30;4.32;;;1024.10;819.20;;;;;;5094059;28;20027;-79
2022/07/21 11:03:40;;;;;;;7.47;4.30;;;1024.10;819.20;;;;;;5104033;28;20035;-82
2022/07/21 11:06:05;;;;;;;12.63;4.20;;;1024.10;844.80;;;;;;5096226;28;20531;-81
2022/07/21 11:08:33;;;;;;;8.18;3.88;;;1024.60;819.20;;;;;;5095425;28;20122;-80
2022/07/21 11:11:10;;;;;;;8.68;4.03;;;1024.60;793.60;;;;;;5086708;28;20051;-80
2022/07/21 11:14:15;;;;;;;10.23;4.55;;;1049.60;819.20;;;;;;5095634;28;20358;-82
2022/07/21 11:16:40;;;;;;;10.55;4.43;;;1024.50;793.60;;;;;;5093249;28;20044;-81
2022/07/21 11:19:34;;;;;;;8.48;4.00;;;1024.30;793.60;;;;;;5096010;28;20538;-81
2022/07/21 11:22:03;;;;;;;6.43;4.03;;;1024.50;768.00;;;;;;5083277;28;20027;-77
2022/07/21 11:24:29;;;;;;;7.72;3.72;;;1024.60;793.60;;;;;;5100352;28;20024;-79
2022/07/21 11:27:01;;;;;;;12.70;4.35;;;1024.90;768.00;;;;;;5113240;28;20431;-78
2022/07/21 11:29:28;;;;;;;8.93;4.53;;;1049.70;793.60;;;;;;5113812;28;20028;-77
2022/07/21 11:31:54;;;;;;;6.22;4.07;;;1050.00;793.60;;;;;;5113505;28;20019;-78
2022/07/21 11:34:20;;;;;;;8.80;4.47;;;1049.90;793.60;;;;;;5105102;27;20038;-80
2022/07/21 11:36:46;;;;;;;11.40;4.53;;;1050.30;793.60;;;;;;5114099;28;20018;-78
2022/07/21 11:39:15;;;;;;;5.75;4.18;;;1050.00;793.60;;;;;;5113579;28;20393;-78
2022/07/21 11:41:42;;;;;;;8.98;4.47;;;1049.80;793.60;;;;;;5112994;28;20114;-78
2022/07/21 11:44:21;;;;;;;7.43;4.43;;;1049.90;793.60;;;;;;5096963;28;20028;-79
2022/07/21 11:46:50;;;;;;;6.78;4.13;;;1050.40;768.00;;;;;;5094603;28;20477;-79
2022/07/21 11:49:16;;;;;;;8.20;4.35;;;1049.90;793.60;;;;;;5095006;28;20053;-78
2022/07/21 11:51:50;;;;;;;12.18;4.53;;;1050.00;793.60;;;;;;5093269;28;20119;-79
2022/07/21 11:54:26;;;;;;;;;;;1049.90;768.00;;;;;;5112146;28;20020;-78
2022/07/21 11:56:53;;;;;;;8.10;4.35;;;1049.80;793.60;;;;;;5092387;28;19923;-81
2022/07/21 11:59:20;;;;;;;12.75;4.32;;;1049.90;793.60;;;;;;5117385;28;20103;-79
2022/07/21 12:01:51;;;;;;;7.32;4.25;;;1049.70;793.60;;;;;;5099789;28;20039;-78
2022/07/21 12:04:42;;;;;;;12.07;4.53;;;1050.00;793.60;;;;;;5107388;28;20039;-79
2022/07/21 12:07:17;;;;;;;6.82;4.47;;;1050.40;768.00;;;;;;5118709;28;20149;-74
2022/07/21 12:09:44;;;;;;;10.02;4.68;;;1050.40;768.00;;;;;;5114205;28;20473;-81
2022/07/21 12:12:11;;;;;;;6.55;3.97;;;1050.20;742.40;;;;;;5105330;28;20161;-80
2022/07/21 12:14:50;;;;;;;8.68;4.22;;;1050.50;742.40;;;;;;5106125;28;20504;-76
2022/07/21 12:17:31;;;;;;;11.75;4.75;;;1075.20;742.40;;;;;;5127255;28;20030;-77
2022/07/21 12:19:57;;;;;;;7.13;3.78;;;1050.50;742.40;;;;;;5132826;28;20019;-77